Time;durP1;ratioP1;P1;durP2;ratioP2;P2;SDS_P1;SDS_P2;PMS_P1;PMS_P2;Temp;Humidity;BMP_temperature;BMP_pressure;BME280_temperature;BME280_humidity;BME280_pressure;Samples;Min_cycle;Max_cycle;Signal;HPM_P1;HPM_P2
2022/02/22 00:01:12;;;;;;;10.27;1.45;;;;;;;4.75;100.00;98876.41;5008173;28;20058;-82
2022/02/22 00:03:38;;;;;;;5.20;1.10;;;;;;;4.68;100.00;98872.66;5003609;28;20501;-83
2022/02/22 00:06:05;;;;;;;2.30;0.70;;;;;;;4.68;100.00;98869.97;5002579;28;20054;-83
2022/02/22 00:08:34;;;;;;;6.30;1.33;;;;;;;4.65;100.00;98864.00;5007834;28;20060;-83
2022/02/22 00:11:01;;;;;;;5.93;1.20;;;;;;;4.66;100.00;98854.94;5009150;28;20045;-83
2022/02/22 00:13:28;;;;;;;20.55;2.55;;;;;;;4.64;100.00;98855.09;5002613;28;20045;-82
2022/02/22 00:15:56;;;;;;;4.43;1.30;;;;;;;4.67;100.00;98862.03;5008024;28;20046;-83
2022/02/22 00:18:22;;;;;;;3.72;1.17;;;;;;;4.62;100.00;98870.53;5000150;28;20042;-83
2022/02/22 00:20:49;;;;;;;6.45;1.10;;;;;;;4.68;100.00;98877.16;5002996;28;20042;-83
2022/02/22 00:23:16;;;;;;;1.30;0.95;;;;;;;4.73;99.51;98896.44;5001631;28;20054;-82
2022/02/22 00:25:44;;;;;;;8.07;1.70;;;;;;;4.74;99.05;98884.63;5006528;28;20044;-82
2022/02/22 00:28:10;;;;;;;5.80;1.20;;;;;;;4.75;98.46;98895.25;5006326;28;20046;-82
2022/02/22 00:30:37;;;;;;;14.68;1.38;;;;;;;4.76;97.23;98905.03;5008536;28;20044;-82
2022/02/22 00:33:04;;;;;;;7.25;1.15;;;;;;;4.78;97.89;98912.94;5003566;28;20096;-82
2022/02/22 00:35:30;;;;;;;5.90;1.30;;;;;;;4.80;97.74;98916.31;5007935;28;20531;-83
2022/02/22 00:37:57;;;;;;;4.25;1.15;;;;;;;4.79;96.11;98920.03;5009881;28;20153;-83
2022/02/22 00:40:23;;;;;;;7.57;1.17;;;;;;;4.73;96.16;98926.03;5007835;28;20060;-82
2022/02/22 00:42:51;;;;;;;8.52;1.23;;;;;;;4.76;96.97;98934.66;5002969;28;20133;-83
2022/02/22 00:45:20;;;;;;;4.15;1.08;;;;;;;4.73;96.94;98929.56;5008048;28;20062;-83
2022/02/22 00:47:47;;;;;;;9.32;1.83;;;;;;;4.70;97.60;98929.06;5012938;28;20058;-83
2022/02/22 00:50:14;;;;;;;9.63;1.73;;;;;;;4.65;98.67;98934.88;5007731;28;20042;-83
2022/02/22 00:52:40;;;;;;;13.05;1.27;;;;;;;4.57;98.71;98940.19;5002248;28;20054;-82
2022/02/22 00:55:09;;;;;;;8.60;1.30;;;;;;;4.56;99.63;98944.72;5007733;28;20090;-83
2022/02/22 00:57:37;;;;;;;5.05;1.30;;;;;;;4.59;98.65;98949.81;5008814;28;20057;-83
2022/02/22 01:00:06;;;;;;;7.20;1.52;;;;;;;4.60;99.56;98951.47;5008520;28;20132;-82
2022/02/22 01:02:33;;;;;;;6.03;1.92;;;;;;;4.61;100.00;98957.72;5008801;28;20047;-83
2022/02/22 01:05:00;;;;;;;2.13;0.90;;;;;;;4.51;100.00;98965.00;5007393;28;20050;-83
2022/02/22 01:07:26;;;;;;;6.35;1.05;;;;;;;4.52;100.00;98972.09;5001644;28;20138;-82
2022/02/22 01:09:53;;;;;;;2.70;1.15;;;;;;;4.47;100.00;98967.19;5008862;28;20052;-82
2022/02/22 01:12:20;;;;;;;8.15;2.05;;;;;;;4.45;100.00;98973.69;5001464;28;20046;-83
2022/02/22 01:14:47;;;;;;;4.55;1.15;;;;;;;4.33;100.00;98983.81;5004999;28;20405;-82
2022/02/22 01:17:15;;;;;;;5.85;1.55;;;;;;;4.31;100.00;98983.97;5008774;28;20057;-82
2022/02/22 01:19:42;;;;;;;11.15;1.45;;;;;;;4.27;100.00;98979.88;5011350;28;20056;-82
2022/02/22 01:22:09;;;;;;;10.70;1.38;;;;;;;4.26;100.00;98991.66;5009297;28;20052;-82
2022/02/22 01:24:35;;;;;;;9.80;1.55;;;;;;;4.18;100.00;98992.38;5004873;28;20511;-82
2022/02/22 01:27:02;;;;;;;7.20;1.83;;;;;;;4.18;100.00;99011.19;5012658;28;20500;-82
2022/02/22 01:29:29;;;;;;;6.13;1.52;;;;;;;4.09;100.00;98993.25;5007312;28;20128;-82
2022/02/22 01:31:56;;;;;;;5.13;1.70;;;;;;;4.06;100.00;98999.81;5011164;28;20123;-82
2022/02/22 01:34:24;;;;;;;13.05;1.50;;;;;;;4.12;100.00;99013.66;5011303;28;20045;-82
2022/02/22 01:36:51;;;;;;;9.32;1.60;;;;;;;4.06;100.00;99007.00;5010558;28;20477;-82
2022/02/22 01:39:17;;;;;;;9.45;1.80;;;;;;;4.04;100.00;99014.38;5012196;28;20042;-82
2022/02/22 01:41:45;;;;;;;5.90;1.10;;;;;;;3.97;100.00;99019.47;5010856;28;20053;-82
2022/02/22 01:44:13;;;;;;;5.15;1.73;;;;;;;3.96;100.00;99028.56;5002346;28;20477;-82
2022/02/22 01:46:39;;;;;;;11.82;2.13;;;;;;;3.95;100.00;99044.84;5011208;28;20077;-82
2022/02/22 01:49:06;;;;;;;6.70;2.03;;;;;;;3.95;100.00;99048.38;5010618;28;20428;-82
2022/02/22 01:51:40;;;;;;;4.22;1.27;;;;;;;3.87;100.00;99054.50;5013743;28;20053;-82
2022/02/22 01:54:07;;;;;;;15.68;1.70;;;;;;;3.86;100.00;99052.78;5011383;28;20057;-82
2022/02/22 01:56:35;;;;;;;11.48;1.63;;;;;;;3.81;100.00;99057.75;5012998;28;20070;-82
2022/02/22 01:59:02;;;;;;;7.35;3.10;;;;;;;3.81;100.00;99059.59;5005926;28;20049;-82
2022/02/22 02:01:29;;;;;;;7.07;1.65;;;;;;;3.83;100.00;99065.69;5009998;28;20141;-82
2022/02/22 02:03:59;;;;;;;5.25;1.20;;;;;;;3.75;100.00;99068.22;5007828;28;20050;-82
2022/02/22 02:06:25;;;;;;;;;;;;;;;3.81;100.00;99068.53;5005923;28;20062;-81
2022/02/22 02:08:53;;;;;;;5.38;1.30;;;;;;;3.72;100.00;99047.88;5009779;28;19929;-82
2022/02/22 02:11:20;;;;;;;4.60;1.30;;;;;;;3.82;100.00;99058.59;5012425;28;20137;-82
2022/02/22 02:13:48;;;;;;;9.35;1.75;;;;;;;3.85;100.00;99069.06;5010269;28;20470;-82
2022/02/22 02:16:15;;;;;;;3.30;1.10;;;;;;;3.73;100.00;99060.31;5010699;28;20615;-82
2022/02/22 02:18:41;;;;;;;7.68;1.75;;;;;;;3.84;100.00;99070.91;5011125;28;20050;-82
2022/02/22 02:21:08;;;;;;;10.55;1.45;;;;;;;3.85;100.00;99074.44;5010862;28;20050;-82
2022/02/22 02:23:36;;;;;;;4.78;1.40;;;;;;;3.76;100.00;99067.25;5010132;28;20512;-81
2022/02/22 02:26:04;;;;;;;9.25;1.55;;;;;;;3.83;100.00;99074.59;5008773;28;20458;-82
2022/02/22 02:28:30;;;;;;;4.70;1.83;;;;;;;3.90;100.00;99074.88;5005220;28;20452;-81
2022/02/22 02:30:57;;;;;;;8.77;1.95;;;;;;;3.89;100.00;99065.09;5009894;28;20056;-82
2022/02/22 02:33:23;;;;;;;6.97;1.30;;;;;;;3.89;100.00;99067.78;5009180;28;20046;-82
2022/02/22 02:35:51;;;;;;;2.78;1.45;;;;;;;3.92;100.00;99069.34;5006695;28;20046;-81
2022/02/22 02:38:18;;;;;;;3.65;1.50;;;;;;;3.95;100.00;99074.44;5010838;28;20038;-82
2022/02/22 02:40:46;;;;;;;9.52;1.33;;;;;;;3.87;100.00;99070.63;5010330;28;20408;-82
2022/02/22 02:43:12;;;;;;;7.60;1.52;;;;;;;3.91;100.00;99076.56;5001674;28;20482;-82
2022/02/22 02:45:39;;;;;;;8.30;1.67;;;;;;;3.97;100.00;99086.72;5003513;28;20049;-82
2022/02/22 02:48:05;;;;;;;8.55;1.67;;;;;;;3.97;100.00;99105.56;5010438;28;20486;-82
2022/02/22 02:50:32;;;;;;;14.00;1.90;;;;;;;3.94;100.00;99103.16;5010170;28;20052;-81
2022/02/22 02:52:58;;;;;;;7.75;2.58;;;;;;;3.96;100.00;99120.03;5004585;28;20058;-82
2022/02/22 02:55:25;;;;;;;9.75;1.88;;;;;;;3.82;100.00;99107.00;5005365;28;20124;-82
2022/02/22 02:57:53;;;;;;;8.35;1.45;;;;;;;3.72;100.00;99115.94;5012765;28;20049;-82
2022/02/22 03:00:19;;;;;;;3.80;1.38;;;;;;;3.69;100.00;99112.69;5010200;28;20064;-82
2022/02/22 03:02:46;;;;;;;9.57;1.73;;;;;;;3.64;100.00;99121.16;5010624;28;20056;-82
2022/02/22 03:05:13;;;;;;;8.88;1.50;;;;;;;3.61;100.00;99132.19;5010560;28;20052;-81
2022/02/22 03:07:39;;;;;;;9.75;2.03;;;;;;;3.58;100.00;99108.28;5005004;28;20105;-82
2022/02/22 03:10:07;;;;;;;5.25;1.65;;;;;;;3.54;100.00;99131.09;5008212;28;20321;-81
2022/02/22 03:12:36;;;;;;;10.55;1.92;;;;;;;3.40;100.00;99123.41;5009176;28;20041;-82
2022/02/22 03:15:04;;;;;;;6.40;1.20;;;;;;;3.46;100.00;99120.16;5008369;28;20068;-82
2022/02/22 03:17:31;;;;;;;8.25;1.48;;;;;;;3.35;100.00;99096.97;5006707;28;20053;-82
2022/02/22 03:19:57;;;;;;;11.18;1.40;;;;;;;3.42;100.00;99110.69;5002661;28;20409;-82
2022/02/22 03:22:24;;;;;;;6.10;2.45;;;;;;;3.44;100.00;99125.69;5011318;28;20050;-82
2022/02/22 03:24:51;;;;;;;4.57;1.05;;;;;;;3.40;100.00;99126.94;5010479;28;20402;-82
2022/02/22 03:27:17;;;;;;;8.25;1.52;;;;;;;3.47;100.00;99132.63;5005477;28;20128;-81
2022/02/22 03:29:44;;;;;;;4.30;1.30;;;;;;;3.39;100.00;99129.78;5011112;28;20049;-82
2022/02/22 03:32:12;;;;;;;8.40;1.98;;;;;;;3.41;100.00;99147.47;5009406;28;20529;-82
2022/02/22 03:34:38;;;;;;;9.57;1.98;;;;;;;3.40;100.00;99137.69;5010068;28;20052;-82
2022/02/22 03:37:05;;;;;;;4.68;1.40;;;;;;;3.32;100.00;99133.03;5001175;28;20706;-81
2022/02/22 03:39:32;;;;;;;7.35;1.33;;;;;;;3.41;100.00;99147.47;5003465;28;20088;-81
2022/02/22 03:41:58;;;;;;;8.75;2.30;;;;;;;3.27;100.00;99132.59;5007546;28;20060;-81
2022/02/22 03:44:25;;;;;;;10.38;2.97;;;;;;;3.35;100.00;99143.50;5003615;28;20409;-82
2022/02/22 03:46:51;;;;;;;11.85;2.05;;;;;;;3.32;100.00;99154.53;5008849;28;20056;-82
2022/02/22 03:49:20;;;;;;;7.38;1.30;;;;;;;3.33;100.00;99160.75;4995892;28;20516;-82
2022/02/22 03:51:46;;;;;;;7.18;1.75;;;;;;;3.36;100.00;99168.56;4999998;28;20097;-81
2022/02/22 03:54:13;;;;;;;9.70;2.05;;;;;;;3.35;100.00;99164.16;5007089;28;20501;-82
2022/02/22 03:56:40;;;;;;;9.07;1.58;;;;;;;3.34;100.00;99168.69;5008007;28;20045;-82
2022/02/22 03:59:06;;;;;;;8.18;2.13;;;;;;;3.36;100.00;99171.22;5002068;28;20065;-81
2022/02/22 04:01:33;;;;;;;9.50;1.48;;;;;;;3.28;100.00;99169.25;5009761;28;20046;-81
2022/02/22 04:03:59;;;;;;;5.28;1.60;;;;;;;3.38;100.00;99189.91;5009354;28;20050;-81
2022/02/22 04:06:27;;;;;;;12.50;1.77;;;;;;;3.33;100.00;99183.09;5002124;28;20050;-82
2022/02/22 04:08:54;;;;;;;4.72;2.15;;;;;;;3.45;100.00;99199.97;5009212;28;20401;-82
2022/02/22 04:11:23;;;;;;;5.43;1.50;;;;;;;3.50;100.00;99219.19;5008810;28;20038;-82
2022/02/22 04:13:50;;;;;;;5.00;1.52;;;;;;;3.51;100.00;99220.91;5003357;28;20049;-82
2022/02/22 04:16:19;;;;;;;8.98;2.20;;;;;;;3.54;100.00;99226.00;5012176;28;20068;-82
2022/02/22 04:18:46;;;;;;;2.97;1.40;;;;;;;3.58;100.00;99237.31;5009892;28;20045;-82
2022/02/22 04:21:12;;;;;;;7.25;1.52;;;;;;;3.53;100.00;99231.53;5008735;28;20383;-82
2022/02/22 04:23:40;;;;;;;6.40;2.08;;;;;;;3.54;100.00;99230.53;5001954;28;20299;-82
2022/02/22 04:26:07;;;;;;;11.02;2.10;;;;;;;3.43;100.00;99236.84;5005888;28;20519;-82
2022/02/22 04:28:33;;;;;;;6.25;1.60;;;;;;;3.46;100.00;99247.38;5009531;28;20514;-82
2022/02/22 04:31:00;;;;;;;9.05;2.78;;;;;;;3.45;100.00;99253.72;5004615;28;20067;-82
2022/02/22 04:33:27;;;;;;;6.03;1.73;;;;;;;3.41;100.00;99252.28;5003345;28;20535;-82
2022/02/22 04:35:53;;;;;;;4.30;1.65;;;;;;;3.34;100.00;99252.00;5003308;28;20042;-81
2022/02/22 04:38:23;;;;;;;6.90;1.50;;;;;;;3.31;100.00;99256.78;5010233;28;20498;-81
2022/02/22 04:40:51;;;;;;;5.15;1.65;;;;;;;3.28;100.00;99267.78;5009394;28;20049;-79
2022/02/22 04:43:17;;;;;;;5.30;1.63;;;;;;;3.26;100.00;99245.59;5008119;28;20124;-82
2022/02/22 04:45:44;;;;;;;7.07;1.90;;;;;;;3.22;100.00;99257.59;5005181;28;20445;-82
2022/02/22 04:48:11;;;;;;;6.35;1.80;;;;;;;3.16;100.00;99253.59;5008404;28;20136;-82
2022/02/22 04:50:37;;;;;;;7.28;1.90;;;;;;;3.16;100.00;99265.22;5010057;28;20056;-80
2022/02/22 04:53:05;;;;;;;7.47;2.15;;;;;;;3.13;100.00;99245.81;5010392;28;20046;-83
2022/02/22 04:55:31;;;;;;;7.63;2.65;;;;;;;3.21;100.00;99253.19;5012784;28;20483;-83
2022/02/22 04:58:00;;;;;;;8.90;1.95;;;;;;;3.23;100.00;99270.88;5012725;28;20485;-82
2022/02/22 05:00:26;;;;;;;8.80;2.30;;;;;;;3.21;100.00;99277.38;5013407;28;20580;-82
2022/02/22 05:02:53;;;;;;;7.25;2.20;;;;;;;3.09;100.00;99279.31;5012050;28;20445;-82
2022/02/22 05:05:19;;;;;;;9.15;2.08;;;;;;;3.15;100.00;99292.22;5003716;28;20057;-82
2022/02/22 05:07:46;;;;;;;4.30;1.70;;;;;;;3.12;100.00;99309.44;5006468;28;20060;-81
2022/02/22 05:10:13;;;;;;;8.38;2.47;;;;;;;3.01;100.00;99304.16;5013670;28;20056;-81
2022/02/22 05:12:39;;;;;;;11.40;2.78;;;;;;;3.08;100.00;99301.78;5012876;28;20069;-81
2022/02/22 05:15:08;;;;;;;8.52;1.75;;;;;;;3.04;100.00;99319.16;5011508;28;20505;-81
2022/02/22 05:17:35;;;;;;;11.95;2.85;;;;;;;2.96;100.00;99309.06;5012613;28;20054;-81
2022/02/22 05:20:01;;;;;;;3.47;2.03;;;;;;;2.97;100.00;99319.69;5013192;28;20129;-82
2022/02/22 05:22:29;;;;;;;12.23;1.95;;;;;;;2.96;100.00;99335.94;5011733;28;20057;-82
2022/02/22 05:24:56;;;;;;;5.57;1.85;;;;;;;2.90;100.00;99323.03;5001596;28;20482;-81
2022/02/22 05:27:22;;;;;;;12.27;2.17;;;;;;;2.93;100.00;99333.50;5007090;28;20046;-81
2022/02/22 05:29:49;;;;;;;7.53;2.15;;;;;;;2.87;100.00;99336.72;5005888;28;20490;-81
2022/02/22 05:32:17;;;;;;;3.17;2.10;;;;;;;2.86;100.00;99332.31;5010952;28;20045;-82
2022/02/22 05:34:43;;;;;;;6.57;1.85;;;;;;;2.77;100.00;99329.47;5005165;28;20061;-82
2022/02/22 05:37:10;;;;;;;7.43;2.42;;;;;;;2.81;100.00;99322.81;5012861;28;20133;-83
2022/02/22 05:39:37;;;;;;;7.45;2.42;;;;;;;2.83;100.00;99336.13;5004739;28;20134;-81
2022/02/22 05:42:04;;;;;;;8.57;1.95;;;;;;;2.75;100.00;99323.34;5013879;28;20050;-81
2022/02/22 05:44:31;;;;;;;3.33;2.30;;;;;;;2.74;100.00;99332.41;5008717;28;20038;-81
2022/02/22 05:46:57;;;;;;;12.13;2.38;;;;;;;2.62;100.00;99323.56;5000742;28;20049;-81
2022/02/22 05:49:25;;;;;;;10.98;2.50;;;;;;;2.68;100.00;99338.31;5004495;28;20088;-82
2022/02/22 05:51:53;;;;;;;7.15;2.17;;;;;;;2.69;100.00;99331.94;5001371;28;20864;-81
2022/02/22 05:54:20;;;;;;;5.35;1.88;;;;;;;2.69;100.00;99341.84;5005201;28;20046;-82
2022/02/22 05:56:47;;;;;;;10.32;2.40;;;;;;;2.68;100.00;99342.81;5008949;28;20049;-83
2022/02/22 05:59:14;;;;;;;9.48;2.35;;;;;;;2.72;100.00;99355.84;5009313;28;20038;-81
2022/02/22 06:01:43;;;;;;;12.02;2.65;;;;;;;2.68;100.00;99351.72;5005940;28;20088;-82
2022/02/22 06:04:12;;;;;;;2.45;1.50;;;;;;;2.70;100.00;99363.19;5009582;28;20145;-81
2022/02/22 06:06:41;;;;;;;5.78;1.98;;;;;;;2.70;100.00;99375.75;5009975;28;20095;-81
2022/02/22 06:09:10;;;;;;;8.25;2.05;;;;;;;2.66;100.00;99375.16;5014058;28;20045;-82
2022/02/22 06:11:37;;;;;;;7.22;2.20;;;;;;;2.67;100.00;99384.91;5013893;28;20104;-81
2022/02/22 06:14:04;;;;;;;7.85;1.85;;;;;;;2.58;100.00;99391.91;5004594;28;20050;-82
2022/02/22 06:16:30;;;;;;;8.25;2.17;;;;;;;2.53;100.00;99379.84;5005493;28;20068;-81
2022/02/22 06:18:57;;;;;;;4.15;1.98;;;;;;;2.50;100.00;99374.72;5010824;28;20481;-81
2022/02/22 06:21:24;;;;;;;9.40;2.03;;;;;;;2.57;100.00;99383.97;5012216;28;20049;-81
2022/02/22 06:23:55;;;;;;;8.02;1.90;;;;;;;2.46;100.00;99374.16;5009682;28;20060;-81
2022/02/22 06:26:22;;;;;;;4.93;1.55;;;;;;;2.45;100.00;99377.78;5003633;28;20129;-80
2022/02/22 06:28:48;;;;;;;7.28;1.98;;;;;;;2.41;100.00;99379.91;5007733;28;20046;-81
2022/02/22 06:31:16;;;;;;;9.98;2.00;;;;;;;2.39;100.00;99383.69;5011844;28;20125;-81
2022/02/22 06:33:43;;;;;;;12.88;2.17;;;;;;;2.44;100.00;99394.91;5010089;28;20046;-81
2022/02/22 06:36:10;;;;;;;10.70;2.15;;;;;;;2.46;100.00;99392.94;5003018;28;20470;-81
2022/02/22 06:38:37;;;;;;;18.50;2.67;;;;;;;2.37;100.00;99381.13;5010779;28;20050;-80
2022/02/22 06:41:06;;;;;;;7.32;2.28;;;;;;;2.43;100.00;99398.56;5003271;28;20478;-81
2022/02/22 06:43:32;;;;;;;13.18;2.67;;;;;;;2.45;100.00;99393.91;5009015;28;20133;-81
2022/02/22 06:45:59;;;;;;;6.97;2.38;;;;;;;2.50;100.00;99401.56;5007967;28;20042;-81
2022/02/22 06:48:25;;;;;;;7.65;2.55;;;;;;;2.55;100.00;99413.63;5003463;28;20053;-81
2022/02/22 06:50:52;;;;;;;8.65;2.83;;;;;;;2.54;100.00;99419.97;5009554;28;20128;-81
2022/02/22 06:53:19;;;;;;;8.57;2.13;;;;;;;2.59;100.00;99420.44;5006608;28;20046;-81
2022/02/22 06:55:45;;;;;;;10.55;2.28;;;;;;;2.55;100.00;99410.94;5009605;28;20056;-81
2022/02/22 06:58:13;;;;;;;6.57;2.33;;;;;;;2.62;100.00;99416.63;5008373;28;20096;-81
2022/02/22 07:00:43;;;;;;;8.82;2.40;;;;;;;2.69;100.00;99420.53;5002415;28;20521;-81
2022/02/22 07:03:10;;;;;;;11.98;2.20;;;;;;;2.67;100.00;99427.88;5010996;28;20181;-81
2022/02/22 07:05:37;;;;;;;4.97;1.98;;;;;;;2.76;100.00;99434.31;5008467;28;20172;-80
2022/02/22 07:08:04;;;;;;;10.32;1.85;;;;;;;2.77;100.00;99439.53;5009392;28;22946;-81
2022/02/22 07:10:31;;;;;;;9.40;2.38;;;;;;;2.84;100.00;99450.59;5002570;28;20043;-81
2022/02/22 07:12:57;;;;;;;9.10;1.90;;;;;;;2.74;100.00;99445.16;5000579;28;20050;-81
2022/02/22 07:15:26;;;;;;;8.10;1.73;;;;;;;2.85;100.00;99454.16;5013535;28;20045;-81
2022/02/22 07:17:54;;;;;;;6.03;2.05;;;;;;;2.89;100.00;99475.25;5009818;28;20096;-81
2022/02/22 07:20:24;;;;;;;6.03;1.85;;;;;;;2.92;100.00;99468.75;5010878;28;20129;-80
2022/02/22 07:23:12;;;;;;;6.25;2.42;;;;;;;3.00;100.00;99477.88;5150771;27;20451;-80
2022/02/22 07:25:38;;;;;;;9.95;2.55;;;;;;;3.10;100.00;99483.34;5134454;27;20044;-81
2022/02/22 07:28:05;;;;;;;7.40;2.10;;;;;;;3.19;100.00;99485.25;5128567;27;20035;-81
2022/02/22 07:30:31;;;;;;;4.85;1.50;;;;;;;3.22;100.00;99494.88;5119047;27;20097;-82
2022/02/22 07:32:59;;;;;;;10.18;2.60;;;;;;;3.26;100.00;99487.41;5124986;27;20047;-81
2022/02/22 07:38:32;;;;;;;6.50;1.63;;;;;;;3.22;100.00;99499.41;5109740;27;20047;-81
2022/02/22 07:40:59;;;;;;;10.75;2.53;;;;;;;3.30;100.00;99505.84;5120223;27;20048;-81
2022/02/22 07:43:26;;;;;;;9.90;2.28;;;;;;;3.32;100.00;99508.41;5128326;27;20130;-81
2022/02/22 07:45:52;;;;;;;12.32;2.42;;;;;;;3.28;100.00;99510.50;5119633;27;20073;-81
2022/02/22 07:48:19;;;;;;;13.93;2.60;;;;;;;3.43;100.00;99527.13;5129650;27;20047;-82
2022/02/22 07:50:45;;;;;;;14.15;2.80;;;;;;;3.48;100.00;99534.84;5136343;27;20043;-81
2022/02/22 07:53:12;;;;;;;12.75;2.90;;;;;;;3.51;100.00;99532.72;5126914;27;20062;-82
2022/02/22 07:55:40;;;;;;;6.05;2.20;;;;;;;3.49;100.00;99531.16;5132691;27;20051;-81
2022/02/22 07:58:07;;;;;;;11.80;2.85;;;;;;;3.59;100.00;99547.34;5128409;27;20056;-81
2022/02/22 08:00:33;;;;;;;13.73;2.38;;;;;;;3.61;100.00;99542.69;5125801;28;20051;-81
2022/02/22 08:03:01;;;;;;;9.43;2.85;;;;;;;3.76;100.00;99549.44;5123900;27;20046;-81
2022/02/22 08:05:29;;;;;;;17.55;2.85;;;;;;;3.63;100.00;99538.91;5122265;27;20043;-81
2022/02/22 08:07:56;;;;;;;6.35;2.22;;;;;;;3.85;100.00;99554.06;5123636;27;20051;-81
2022/02/22 08:10:22;;;;;;;15.57;2.53;;;;;;;4.01;100.00;99560.78;5127054;27;20039;-79
2022/02/22 08:12:51;;;;;;;11.80;2.38;;;;;;;4.14;100.00;99566.81;5126991;27;20043;-79
2022/02/22 08:15:18;;;;;;;7.18;2.30;;;;;;;4.27;100.00;99577.34;5127208;27;20050;-79
2022/02/22 08:17:44;;;;;;;10.98;2.25;;;;;;;4.40;100.00;99571.75;5128029;27;20130;-80
2022/02/22 08:20:12;;;;;;;11.18;4.97;;;;;;;4.42;100.00;99581.38;5127822;27;20051;-79
2022/02/22 08:22:39;;;;;;;7.72;2.17;;;;;;;4.37;100.00;99591.69;5120327;28;20401;-79
2022/02/22 08:25:06;;;;;;;7.82;1.83;;;;;;;4.33;100.00;99576.78;5126749;27;20455;-79
2022/02/22 08:27:33;;;;;;;9.60;2.30;;;;;;;4.33;100.00;99600.19;5127518;27;20039;-79
2022/02/22 08:30:01;;;;;;;11.55;2.20;;;;;;;4.32;100.00;99596.66;5127591;27;20047;-79
2022/02/22 08:32:27;;;;;;;11.40;1.80;;;;;;;4.47;100.00;99604.34;5125755;27;20062;-78
2022/02/22 08:34:54;;;;;;;11.80;1.73;;;;;;;4.51;100.00;99609.31;5114150;27;20507;-78
2022/02/22 08:37:20;;;;;;;7.18;2.00;;;;;;;4.44;100.00;99610.84;5114186;27;20500;-79
2022/02/22 08:39:47;;;;;;;7.68;1.85;;;;;;;4.52;100.00;99615.59;5109342;27;20052;-78
2022/02/22 08:42:13;;;;;;;14.57;2.30;;;;;;;4.53;100.00;99614.56;5111856;28;20044;-79
2022/02/22 08:44:40;;;;;;;13.30;3.15;;;;;;;4.41;100.00;99603.91;5109576;27;20064;-79
2022/02/22 08:47:08;;;;;;;12.98;2.97;;;;;;;4.49;100.00;99616.69;5110277;27;20051;-79
2022/02/22 08:49:36;;;;;;;6.85;1.45;;;;;;;4.55;100.00;99623.38;5110788;27;20054;-79
2022/02/22 08:52:02;;;;;;;6.63;2.28;;;;;;;4.68;100.00;99617.75;5110680;27;20047;-79
2022/02/22 08:54:29;;;;;;;12.73;2.40;;;;;;;4.76;100.00;99616.09;5110464;28;20044;-79
2022/02/22 08:56:55;;;;;;;7.97;1.73;;;;;;;4.87;100.00;99615.13;5110738;27;20130;-79
2022/02/22 08:59:22;;;;;;;9.85;2.17;;;;;;;5.04;100.00;99627.06;5111987;28;20451;-79
2022/02/22 09:01:48;;;;;;;5.82;1.67;;;;;;;5.21;100.00;99622.88;5113296;27;20043;-79
2022/02/22 09:04:16;;;;;;;14.40;2.08;;;;;;;5.29;100.00;99606.84;5114514;27;20044;-79
2022/02/22 09:06:43;;;;;;;11.95;2.33;;;;;;;5.44;99.30;99630.72;5115999;27;20047;-79
2022/02/22 09:09:10;;;;;;;10.10;2.53;;;;;;;5.23;98.80;99626.28;5109516;27;20043;-80
2022/02/22 09:11:36;;;;;;;13.20;1.98;;;;;;;5.30;99.32;99638.22;5110921;28;20043;-79
2022/02/22 09:14:03;;;;;;;14.52;2.17;;;;;;;5.28;98.96;99645.59;5113534;27;20048;-79
2022/02/22 09:16:29;;;;;;;8.70;1.65;;;;;;;5.29;97.20;99647.28;5112622;28;20455;-78
2022/02/22 09:18:56;;;;;;;8.32;2.03;;;;;;;5.52;96.79;99643.50;5118595;27;20073;-79
2022/02/22 09:21:24;;;;;;;14.60;2.40;;;;;;;5.61;96.02;99640.78;5110487;28;20462;-79
2022/02/22 09:23:50;;;;;;;14.68;1.98;;;;;;;5.75;96.17;99628.75;5112248;27;20048;-78
2022/02/22 09:26:17;;;;;;;8.43;1.45;;;;;;;5.63;94.62;99641.50;5112554;27;20465;-79
2022/02/22 09:28:45;;;;;;;11.98;1.80;;;;;;;5.79;95.22;99632.84;5111014;27;20047;-82
2022/02/22 09:31:12;;;;;;;14.57;2.42;;;;;;;5.88;95.34;99630.28;5110871;27;20065;-80
2022/02/22 09:33:38;;;;;;;9.88;2.00;;;;;;;5.88;94.10;99631.13;5113359;27;20507;-81
2022/02/22 09:36:06;;;;;;;9.18;1.73;;;;;;;6.01;95.50;99631.72;5112374;27;20147;-81
2022/02/22 09:38:34;;;;;;;8.85;2.60;;;;;;;6.14;94.63;99625.16;5107303;28;20043;-81
2022/02/22 09:41:03;;;;;;;7.93;2.00;;;;;;;6.14;93.71;99641.34;5106579;28;20079;-81
2022/02/22 09:43:32;;;;;;;3.80;1.48;;;;;;;5.79;94.66;99622.03;5111688;27;20059;-81
2022/02/22 09:45:58;;;;;;;13.85;3.40;;;;;;;5.83;95.41;99646.91;5115892;27;20051;-81
2022/02/22 09:48:28;;;;;;;8.45;1.65;;;;;;;5.85;96.30;99636.81;5112365;27;20459;-81
2022/02/22 09:50:55;;;;;;;7.65;2.13;;;;;;;5.88;95.68;99635.69;5107912;28;20097;-81
2022/02/22 09:53:21;;;;;;;9.70;2.05;;;;;;;5.70;95.98;99646.34;5106108;28;20048;-81
2022/02/22 09:55:49;;;;;;;6.20;2.00;;;;;;;5.70;96.76;99638.25;5108364;28;20142;-80
2022/02/22 09:58:16;;;;;;;6.60;2.28;;;;;;;5.67;97.29;99637.53;5108441;28;20043;-81
2022/02/22 10:00:43;;;;;;;17.08;2.05;;;;;;;5.78;98.66;99643.75;5109733;28;20059;-81
2022/02/22 10:03:17;;;;;;;9.50;2.08;;;;;;;5.63;99.39;99651.44;5103083;28;20042;-81
2022/02/22 10:05:52;;;;;;;11.38;2.15;;;;;;;5.79;100.00;99635.53;5107460;28;20043;-80
2022/02/22 10:08:25;;;;;;;11.13;2.30;;;;;;;5.77;99.31;99629.44;5109471;28;20040;-81
2022/02/22 10:11:01;;;;;;;12.05;2.45;;;;;;;5.77;100.00;99620.50;5108974;28;20489;-81
2022/02/22 10:13:27;;;;;;;11.55;2.10;;;;;;;5.90;99.32;99631.84;5106720;27;20048;-81
2022/02/22 10:15:54;;;;;;;12.38;1.80;;;;;;;6.00;99.93;99637.25;5105330;28;20055;-84
2022/02/22 10:18:20;;;;;;;12.63;2.00;;;;;;;5.96;100.00;99623.19;5109507;28;20044;-82
2022/02/22 10:20:48;;;;;;;10.70;2.15;;;;;;;6.12;98.86;99628.00;5104680;28;20444;-82
2022/02/22 10:23:15;;;;;;;9.18;1.92;;;;;;;6.17;98.68;99617.63;5096540;28;20482;-81
2022/02/22 10:25:42;;;;;;;13.10;1.75;;;;;;;6.32;98.58;99618.03;5107503;28;20047;-81
2022/02/22 10:28:16;;;;;;;9.50;1.95;;;;;;;6.36;97.89;99610.47;5109486;28;20132;-81
2022/02/22 10:30:46;;;;;;;11.10;1.98;;;;;;;6.46;96.19;99623.94;5106503;28;20547;-81
2022/02/22 10:33:16;;;;;;;5.22;1.70;;;;;;;6.32;97.00;99623.44;5105921;28;20071;-81
2022/02/22 10:35:45;;;;;;;5.40;1.95;;;;;;;6.26;98.64;99615.88;5102232;28;20036;-83
2022/02/22 10:38:15;;;;;;;10.45;1.88;;;;;;;6.33;97.58;99621.56;5106980;28;20367;-81
2022/02/22 10:40:43;;;;;;;10.15;2.00;;;;;;;6.43;97.88;99618.81;5106611;28;20540;-81
2022/02/22 10:43:20;;;;;;;8.43;1.67;;;;;;;6.42;96.78;99603.63;5108093;28;20040;-81
2022/02/22 10:45:48;;;;;;;11.48;2.20;;;;;;;6.42;96.48;99619.84;5103176;28;20070;-81
2022/02/22 10:48:25;;;;;;;12.13;2.22;;;;;;;6.68;96.14;99638.94;5105454;28;20051;-81
2022/02/22 10:50:53;;;;;;;8.38;1.90;;;;;;;6.47;95.47;99620.25;5104833;28;20051;-81
2022/02/22 10:53:19;;;;;;;14.85;2.40;;;;;;;6.63;97.13;99625.88;5104252;28;20052;-81
2022/02/22 10:55:47;;;;;;;13.30;1.85;;;;;;;6.55;93.50;99621.22;5109232;28;20479;-82
2022/02/22 10:58:17;;;;;;;13.02;2.67;;;;;;;6.71;94.35;99625.13;5117920;27;20627;-82
2022/02/22 11:01:08;;;;;;;14.55;2.38;;;;;;;6.69;93.20;99621.72;5120620;27;20057;-81
2022/02/22 11:03:35;;;;;;;16.90;2.95;;;;;;;6.65;93.76;99617.63;5112504;27;20402;-79
2022/02/22 11:06:02;;;;;;;19.40;3.15;;;;;;;6.67;94.74;99631.81;5110395;28;20054;-81
2022/02/22 11:08:33;;;;;;;8.73;2.28;;;;;;;6.78;95.39;99628.94;5115794;27;20043;-82
2022/02/22 11:11:04;;;;;;;20.20;3.63;;;;;;;6.67;94.24;99631.81;5105585;28;20451;-81
2022/02/22 11:13:34;;;;;;;11.77;2.28;;;;;;;6.48;94.36;99619.25;5109322;28;20051;-81
2022/02/22 11:16:12;;;;;;;18.63;2.63;;;;;;;6.52;95.41;99632.31;5112038;28;20698;-81
2022/02/22 11:18:56;;;;;;;10.65;2.22;;;;;;;6.80;94.24;99626.09;5109262;28;20295;-81
2022/02/22 11:21:28;;;;;;;22.40;2.67;;;;;;;6.85;94.17;99621.06;5107084;27;20054;-81
2022/02/22 11:24:03;;;;;;;10.82;2.63;;;;;;;7.07;93.25;99615.25;5107321;27;20135;-81
2022/02/22 11:26:44;;;;;;;11.98;2.33;;;;;;;6.89;94.23;99603.56;5112050;28;20047;-81
2022/02/22 11:29:13;;;;;;;12.68;2.70;;;;;;;6.97;95.10;99614.50;5100169;28;20048;-81
2022/02/22 11:31:40;;;;;;;8.75;1.98;;;;;;;6.79;94.60;99605.47;5104716;28;20051;-81
2022/02/22 11:34:07;;;;;;;13.05;2.28;;;;;;;6.52;97.11;99597.19;5095843;28;20052;-82
2022/02/22 11:36:35;;;;;;;12.35;2.20;;;;;;;6.53;96.54;99607.00;5113220;27;20506;-81
2022/02/22 11:39:04;;;;;;;14.07;1.90;;;;;;;6.59;98.04;99604.72;5115679;27;20040;-81